Time;durP1;ratioP1;P1;durP2;ratioP2;P2;SDS_P1;SDS_P2;PMS_P1;PMS_P2;Temp;Humidity;BMP_temperature;BMP_pressure;BME280_temperature;BME280_humidity;BME280_pressure;Samples;Min_cycle;Max_cycle;Signal;HPM_P1;HPM_P2
2024/02/17 00:00:08;;;;;;;14.38;9.45;;;;;;;10.70;100.00;101413.84;5044518;28;20049;-83
2024/02/17 00:02:34;;;;;;;11.18;8.18;;;;;;;10.70;100.00;101422.59;5045455;28;20049;-82
2024/02/17 00:05:02;;;;;;;17.63;10.93;;;;;;;10.70;100.00;101416.44;5046818;28;20053;-82
2024/02/17 00:07:29;;;;;;;16.15;10.02;;;;;;;10.66;100.00;101425.16;5043803;28;20060;-84
2024/02/17 00:09:56;;;;;;;15.38;8.98;;;;;;;10.60;100.00;101407.72;5030027;28;20037;-81
2024/02/17 00:12:25;;;;;;;16.58;10.40;;;;;;;10.56;100.00;101419.91;5032234;28;21292;-83
2024/02/17 00:14:52;;;;;;;14.00;9.05;;;;;;;10.51;100.00;101424.25;5046562;28;20051;-83
2024/02/17 00:17:19;;;;;;;17.13;10.38;;;;;;;10.47;100.00;101426.84;5029226;28;20044;-84
2024/02/17 00:19:46;;;;;;;17.05;9.90;;;;;;;10.46;100.00;101428.59;5041860;28;20108;-84
2024/02/17 00:22:16;;;;;;;14.98;9.57;;;;;;;10.44;100.00;101422.47;5029296;28;20045;-82
2024/02/17 00:24:43;;;;;;;16.75;10.13;;;;;;;10.44;100.00;101417.22;5041291;28;20052;-83
2024/02/17 00:27:10;;;;;;;17.05;10.70;;;;;;;10.43;100.00;101420.75;5029004;28;20544;-82
2024/02/17 00:29:37;;;;;;;17.63;10.68;;;;;;;10.47;100.00;101429.47;5032512;28;20055;-84
2024/02/17 00:32:07;;;;;;;15.90;9.75;;;;;;;10.46;100.00;101427.72;5025802;28;20135;-84
2024/02/17 00:34:33;;;;;;;21.92;11.52;;;;;;;10.42;100.00;101427.69;5030855;28;20037;-83
2024/02/17 00:37:00;;;;;;;16.80;10.95;;;;;;;10.49;100.00;101433.81;5041290;28;20045;-83
2024/02/17 00:39:27;;;;;;;18.25;10.57;;;;;;;10.54;100.00;101442.56;5028529;28;20156;-83
2024/02/17 00:41:54;;;;;;;18.08;10.15;;;;;;;10.53;100.00;101438.22;5031475;28;20131;-83
2024/02/17 00:44:20;;;;;;;21.08;11.60;;;;;;;10.53;100.00;101446.09;5029031;28;20041;-83
2024/02/17 00:46:47;;;;;;;17.15;10.65;;;;;;;10.52;100.00;101446.94;5029049;28;20048;-82
2024/02/17 00:49:14;;;;;;;18.83;11.30;;;;;;;10.56;100.00;101451.31;5031982;28;20579;-84
2024/02/17 00:51:40;;;;;;;24.50;11.88;;;;;;;10.54;100.00;101452.19;5029871;28;20033;-83
2024/02/17 00:54:10;;;;;;;19.73;12.45;;;;;;;10.57;100.00;101455.69;5028827;28;20049;-83
2024/02/17 00:56:39;;;;;;;19.33;11.98;;;;;;;10.58;100.00;101453.94;5034802;28;20041;-84
2024/02/17 00:59:06;;;;;;;21.83;11.07;;;;;;;10.58;100.00;101465.28;5032541;28;20055;-83
2024/02/17 01:01:35;;;;;;;20.40;11.98;;;;;;;10.57;100.00;101462.66;5031699;28;20052;-83
2024/02/17 01:04:09;;;;;;;21.60;14.13;;;;;;;10.57;100.00;101470.50;5033847;28;20063;-83
2024/02/17 01:06:35;;;;;;;;;;;;;;;10.53;100.00;101461.78;5030601;28;20053;-83
2024/02/17 01:09:06;;;;;;;21.42;12.23;;;;;;;10.46;100.00;101469.63;5031802;28;20035;-83
2024/02/17 01:11:33;;;;;;;18.65;12.20;;;;;;;10.37;100.00;101470.44;5033382;28;20044;-83
2024/02/17 01:14:00;;;;;;;17.02;12.50;;;;;;;10.29;100.00;101479.97;5030063;28;20415;-84
2024/02/17 01:16:29;;;;;;;22.30;13.25;;;;;;;10.23;100.00;101481.69;5048537;28;20045;-83
2024/02/17 01:18:56;;;;;;;18.92;12.38;;;;;;;10.17;100.00;101489.47;5049045;28;20048;-84
2024/02/17 01:21:23;;;;;;;22.90;12.90;;;;;;;10.12;100.00;101496.44;5030913;28;20056;-83
2024/02/17 01:23:50;;;;;;;24.25;12.98;;;;;;;10.10;100.00;101498.16;5048509;28;20037;-84
2024/02/17 01:26:20;;;;;;;21.40;12.73;;;;;;;10.06;100.00;101504.22;5030884;28;20044;-81
2024/02/17 01:28:48;;;;;;;23.13;13.35;;;;;;;10.04;100.00;101505.97;5046509;28;20041;-83
2024/02/17 01:31:15;;;;;;;19.13;13.18;;;;;;;9.99;100.00;101503.31;5057102;28;20044;-84
2024/02/17 01:33:42;;;;;;;17.30;11.60;;;;;;;10.03;100.00;101512.06;5033764;28;20068;-83
2024/02/17 01:36:16;;;;;;;20.90;13.00;;;;;;;10.08;100.00;101507.75;5032272;28;20056;-84
2024/02/17 01:38:45;;;;;;;25.17;12.85;;;;;;;10.13;100.00;101510.38;5034092;28;20052;-83
2024/02/17 01:41:13;;;;;;;20.35;12.85;;;;;;;10.17;100.00;101517.38;5032433;28;20044;-83
2024/02/17 01:43:40;;;;;;;20.92;12.77;;;;;;;10.21;100.00;101513.94;5029342;28;20142;-83
2024/02/17 01:46:10;;;;;;;23.08;11.48;;;;;;;10.24;100.00;101517.41;5052380;28;20083;-84
2024/02/17 01:48:36;;;;;;;23.48;12.45;;;;;;;10.25;100.00;101515.69;5020168;28;20063;-83
2024/02/17 01:51:09;;;;;;;19.58;12.15;;;;;;;10.23;100.00;101526.16;5035573;28;20052;-83
2024/02/17 01:53:37;;;;;;;19.20;11.85;;;;;;;10.19;100.00;101518.28;5027512;28;20048;-83
2024/02/17 01:56:10;;;;;;;18.50;11.93;;;;;;;10.15;100.00;101522.59;5051072;28;20391;-82
2024/02/17 01:58:38;;;;;;;18.58;11.57;;;;;;;10.07;100.00;101514.69;5027702;28;20069;-83
2024/02/17 02:01:07;;;;;;;18.42;11.57;;;;;;;10.00;100.00;101525.09;5052346;28;20072;-82
2024/02/17 02:03:35;;;;;;;17.95;11.18;;;;;;;9.97;100.00;101532.94;5048929;28;20040;-83
2024/02/17 02:06:05;;;;;;;20.00;11.70;;;;;;;9.97;100.00;101525.94;5031514;28;20426;-82
2024/02/17 02:08:33;;;;;;;17.95;11.18;;;;;;;9.99;100.00;101526.84;5027748;28;20045;-83
2024/02/17 02:11:01;;;;;;;21.98;11.80;;;;;;;10.03;100.00;101527.75;5052716;28;20119;-83
2024/02/17 02:13:28;;;;;;;16.90;10.20;;;;;;;9.99;100.00;101532.09;5032475;28;20355;-83
2024/02/17 02:15:54;;;;;;;17.98;10.80;;;;;;;10.01;100.00;101545.16;5034655;28;20048;-83
2024/02/17 02:18:26;;;;;;;17.70;10.70;;;;;;;10.01;100.00;101547.78;5033996;28;20044;-83
2024/02/17 02:20:55;;;;;;;14.63;10.35;;;;;;;9.98;100.00;101547.78;5050519;28;20044;-83
2024/02/17 02:23:22;;;;;;;14.40;9.88;;;;;;;9.98;100.00;101553.00;5030496;28;20114;-84
2024/02/17 02:25:57;;;;;;;19.75;10.90;;;;;;;10.01;100.00;101558.25;5015956;28;20452;-84
2024/02/17 02:28:24;;;;;;;16.65;10.68;;;;;;;10.02;100.00;101562.63;5049198;28;20190;-82
2024/02/17 02:30:52;;;;;;;15.10;10.23;;;;;;;10.04;100.00;101568.75;5038672;28;20136;-82
2024/02/17 02:33:19;;;;;;;19.10;10.52;;;;;;;10.04;100.00;101564.38;5034597;28;20132;-83
2024/02/17 02:35:46;;;;;;;15.90;10.27;;;;;;;10.02;100.00;101565.25;5038420;28;20067;-83
2024/02/17 02:38:13;;;;;;;19.48;10.57;;;;;;;10.02;100.00;101570.47;5024599;28;20590;-83
2024/02/17 02:40:39;;;;;;;13.88;10.02;;;;;;;9.99;100.00;101576.56;5037846;28;20051;-82
2024/02/17 02:43:07;;;;;;;14.85;10.98;;;;;;;10.03;100.00;101578.31;5051987;28;20044;-81
2024/02/17 02:45:34;;;;;;;17.27;10.73;;;;;;;10.02;100.00;101575.72;5052898;28;20107;-82
2024/02/17 02:48:01;;;;;;;15.98;10.10;;;;;;;9.97;100.00;101577.41;5049315;28;20049;-82
2024/02/17 02:50:28;;;;;;;13.57;10.13;;;;;;;9.85;100.00;101583.41;5051307;28;20508;-82
2024/02/17 02:52:57;;;;;;;13.88;9.63;;;;;;;9.85;100.00;101584.28;5069666;28;20048;-82
2024/02/17 02:55:27;;;;;;;17.50;10.27;;;;;;;9.87;100.00;101584.31;5032058;28;20135;-83
2024/02/17 02:57:56;;;;;;;14.45;10.80;;;;;;;9.87;100.00;101590.41;5048822;28;20070;-82
2024/02/17 03:00:23;;;;;;;18.40;10.05;;;;;;;9.80;100.00;101595.56;5068083;28;20110;-84
2024/02/17 03:02:52;;;;;;;15.18;8.82;;;;;;;9.82;100.00;101592.09;5049911;28;20148;-83
2024/02/17 03:05:23;;;;;;;16.15;9.40;;;;;;;9.74;100.00;101589.41;5032544;28;20098;-83
2024/02/17 03:07:51;;;;;;;13.68;8.68;;;;;;;9.72;100.00;101596.34;5037713;28;20064;-83
2024/02/17 03:10:18;;;;;;;12.57;9.10;;;;;;;9.71;100.00;101585.88;5031379;28;20098;-82
2024/02/17 03:12:45;;;;;;;11.50;8.23;;;;;;;9.70;100.00;101592.88;5035870;28;20395;-83
2024/02/17 03:15:11;;;;;;;14.32;8.23;;;;;;;9.73;100.00;101592.88;5032975;28;20045;-82
2024/02/17 03:17:39;;;;;;;12.68;8.63;;;;;;;9.77;100.00;101599.03;5047613;28;20442;-83
2024/02/17 03:20:06;;;;;;;13.70;8.18;;;;;;;9.78;100.00;101606.00;5052838;28;20040;-83
2024/02/17 03:22:35;;;;;;;14.48;9.00;;;;;;;9.76;100.00;101608.63;5035044;28;20722;-82
2024/02/17 03:25:01;;;;;;;13.32;8.45;;;;;;;9.70;100.00;101611.16;5035222;28;20093;-83
2024/02/17 03:27:28;;;;;;;13.30;7.63;;;;;;;9.69;100.00;101611.16;5050083;28;20123;-83
2024/02/17 03:29:55;;;;;;;15.40;7.78;;;;;;;9.69;100.00;101614.63;5048545;28;20162;-83
2024/02/17 03:32:21;;;;;;;13.45;8.15;;;;;;;9.67;100.00;101616.34;5034350;28;20054;-82
2024/02/17 03:34:48;;;;;;;15.98;7.22;;;;;;;9.64;100.00;101623.31;5039042;28;20132;-84
2024/02/17 03:37:14;;;;;;;12.52;7.55;;;;;;;9.65;100.00;101620.69;5055598;28;20578;-82
2024/02/17 03:39:41;;;;;;;18.08;8.80;;;;;;;9.64;100.00;101625.91;5032642;28;20045;-83
2024/02/17 03:42:08;;;;;;;13.70;8.25;;;;;;;9.62;100.00;101631.13;5033245;28;20146;-83
2024/02/17 03:44:35;;;;;;;11.52;7.95;;;;;;;9.67;100.00;101631.16;5032819;28;20127;-82
2024/02/17 03:47:01;;;;;;;12.75;7.65;;;;;;;9.63;100.00;101634.63;5030766;28;20563;-83
2024/02/17 03:49:28;;;;;;;13.90;7.30;;;;;;;9.63;100.00;101645.06;5050612;28;20507;-83
2024/02/17 03:51:54;;;;;;;11.68;7.60;;;;;;;9.62;100.00;101646.81;5036715;28;20048;-82
2024/02/17 03:54:21;;;;;;;16.75;7.65;;;;;;;9.60;100.00;101651.16;5050821;28;20055;-82
2024/02/17 03:56:48;;;;;;;12.27;6.90;;;;;;;9.61;100.00;101632.00;5057981;28;20484;-83
2024/02/17 03:59:14;;;;;;;16.00;7.90;;;;;;;9.62;100.00;101649.44;5048118;28;20488;-83
2024/02/17 04:01:41;;;;;;;10.85;7.35;;;;;;;9.61;100.00;101652.91;5029312;28;20037;-84
2024/02/17 04:04:07;;;;;;;14.57;8.35;;;;;;;9.60;100.00;101653.75;5035784;28;20068;-83
2024/02/17 04:06:34;;;;;;;13.00;7.65;;;;;;;9.64;100.00;101662.50;5037343;28;20055;-84
2024/02/17 04:09:01;;;;;;;9.45;7.13;;;;;;;9.62;100.00;101659.00;5036042;28;20143;-83
2024/02/17 04:11:27;;;;;;;9.40;6.95;;;;;;;9.59;100.00;101662.44;5048106;28;20045;-83
2024/02/17 04:13:56;;;;;;;13.55;8.50;;;;;;;9.58;100.00;101660.69;5032730;28;20206;-83
2024/02/17 04:16:23;;;;;;;18.10;9.23;;;;;;;9.60;100.00;101662.47;5049011;28;20076;-83
2024/02/17 04:18:49;;;;;;;12.73;8.52;;;;;;;9.54;100.00;101664.13;5032755;28;20048;-84
2024/02/17 04:21:16;;;;;;;14.77;8.73;;;;;;;9.56;100.00;101667.66;5047757;28;20132;-82
2024/02/17 04:23:46;;;;;;;12.30;8.65;;;;;;;9.49;100.00;101666.72;5034822;28;20124;-83
2024/02/17 04:26:15;;;;;;;14.95;8.60;;;;;;;9.48;100.00;101680.63;5034038;28;20519;-84
2024/02/17 04:28:42;;;;;;;13.80;9.07;;;;;;;9.48;100.00;101683.25;5045292;28;20124;-84
2024/02/17 04:31:09;;;;;;;15.63;8.35;;;;;;;9.51;100.00;101688.50;5035268;28;20045;-83
2024/02/17 04:33:37;;;;;;;15.70;9.18;;;;;;;9.52;100.00;101699.84;5047542;28;20043;-84
2024/02/17 04:36:08;;;;;;;17.48;8.63;;;;;;;9.49;100.00;101703.31;5048263;28;20060;-84
2024/02/17 04:38:35;;;;;;;13.45;8.88;;;;;;;9.49;100.00;101705.03;5020282;28;20045;-83
2024/02/17 04:41:03;;;;;;;15.80;8.90;;;;;;;9.51;100.00;101709.41;5034182;28;20048;-82
2024/02/17 04:43:29;;;;;;;14.18;9.07;;;;;;;9.50;100.00;101720.72;5048330;28;20568;-84
2024/02/17 04:45:56;;;;;;;18.98;8.95;;;;;;;9.53;100.00;101719.88;5026212;28;20738;-83
2024/02/17 04:48:22;;;;;;;13.93;8.82;;;;;;;9.54;100.00;101714.69;5027811;28;20121;-83
2024/02/17 04:50:49;;;;;;;16.27;9.68;;;;;;;9.55;100.00;101721.66;5040341;28;20573;-82
2024/02/17 04:53:16;;;;;;;13.77;8.27;;;;;;;9.56;100.00;101731.25;5049193;28;20058;-83
2024/02/17 04:55:42;;;;;;;13.02;8.90;;;;;;;9.58;100.00;101732.16;5025377;28;21496;-82
2024/02/17 04:58:09;;;;;;;18.13;9.02;;;;;;;9.59;100.00;101735.66;5026267;28;20059;-83
2024/02/17 05:00:35;;;;;;;13.52;8.43;;;;;;;9.54;100.00;101737.31;5026150;28;20077;-82
2024/02/17 05:03:02;;;;;;;17.70;8.55;;;;;;;9.55;100.00;101739.94;5049901;28;20432;-83
2024/02/17 05:05:28;;;;;;;20.90;9.32;;;;;;;9.53;100.00;101738.19;5028660;28;20049;-82
2024/02/17 05:07:55;;;;;;;15.10;8.10;;;;;;;9.53;100.00;101749.53;5031900;28;20048;-82
2024/02/17 05:10:21;;;;;;;18.48;8.77;;;;;;;9.54;100.00;101750.41;5026436;28;20504;-82
2024/02/17 05:12:48;;;;;;;18.98;9.60;;;;;;;9.52;100.00;101755.59;5043865;28;20056;-84
2024/02/17 05:15:15;;;;;;;19.00;9.77;;;;;;;9.54;100.00;101761.75;5026229;28;20729;-84
2024/02/17 05:17:42;;;;;;;16.40;9.23;;;;;;;9.54;100.00;101759.13;5022050;28;20048;-82
2024/02/17 05:20:10;;;;;;;16.35;8.45;;;;;;;9.54;100.00;101766.97;5046149;28;20107;-81
2024/02/17 05:22:37;;;;;;;16.00;9.75;;;;;;;9.51;100.00;101769.53;5044742;28;20051;-83
2024/02/17 05:25:04;;;;;;;17.70;10.15;;;;;;;9.49;100.00;101767.75;5058143;28;20056;-82
2024/02/17 05:27:32;;;;;;;13.32;8.30;;;;;;;9.48;100.00;101771.22;5059011;28;20048;-83
2024/02/17 05:29:58;;;;;;;15.77;8.73;;;;;;;9.45;100.00;101766.81;5039776;28;20057;-82
2024/02/17 05:32:27;;;;;;;17.38;9.07;;;;;;;9.42;100.00;101775.50;5043994;28;20045;-83
2024/02/17 05:34:53;;;;;;;15.82;9.38;;;;;;;9.43;100.00;101781.63;5041799;28;20139;-83
2024/02/17 05:37:20;;;;;;;18.75;8.80;;;;;;;9.42;100.00;101783.34;5049249;28;20400;-82
2024/02/17 05:39:46;;;;;;;17.23;9.13;;;;;;;9.44;100.00;101776.41;5026772;28;20049;-82
2024/02/17 05:42:13;;;;;;;17.10;9.90;;;;;;;9.44;100.00;101788.63;5028427;28;20049;-83
2024/02/17 05:44:39;;;;;;;15.35;8.68;;;;;;;9.42;100.00;101796.41;5027726;28;20071;-83
2024/02/17 05:47:06;;;;;;;14.73;9.18;;;;;;;9.41;100.00;101802.53;5033521;28;20044;-83
2024/02/17 05:49:32;;;;;;;16.65;7.82;;;;;;;9.40;100.00;101794.66;5034702;28;20127;-83
2024/02/17 05:51:59;;;;;;;16.20;7.88;;;;;;;9.43;100.00;101803.41;5036841;28;20139;-84
2024/02/17 05:54:25;;;;;;;14.48;7.15;;;;;;;9.44;100.00;101807.78;5033323;28;20143;-83
2024/02/17 05:56:52;;;;;;;9.35;7.05;;;;;;;9.42;100.00;101816.44;5048191;28;20572;-84
2024/02/17 05:59:18;;;;;;;14.55;7.20;;;;;;;9.40;100.00;101812.97;5031830;28;20131;-83
2024/02/17 06:01:45;;;;;;;10.10;7.28;;;;;;;9.41;100.00;101820.81;5050672;28;20137;-84
2024/02/17 06:04:13;;;;;;;12.60;8.00;;;;;;;9.38;100.00;101819.88;5035599;28;20469;-85
2024/02/17 06:06:40;;;;;;;12.38;6.80;;;;;;;9.41;100.00;101823.44;5031556;28;20466;-83
2024/02/17 06:09:06;;;;;;;11.20;6.25;;;;;;;9.30;100.00;101819.75;5040322;28;20136;-84
2024/02/17 06:11:33;;;;;;;12.05;7.03;;;;;;;9.30;100.00;101831.97;5038042;28;20131;-83
2024/02/17 06:13:59;;;;;;;13.30;7.13;;;;;;;9.27;100.00;101832.78;5035882;28;20427;-86
2024/02/17 06:16:30;;;;;;;9.30;5.38;;;;;;;9.27;100.00;101838.88;5049961;28;20097;-83
2024/02/17 06:21:40;;;;;;;12.32;6.40;;;;;;;9.27;100.00;101840.63;5034662;28;20483;-84
2024/02/17 06:24:07;;;;;;;10.13;6.35;;;;;;;9.29;100.00;101858.94;5031544;28;20393;-84
2024/02/17 06:26:35;;;;;;;20.42;7.68;;;;;;;9.26;100.00;101849.31;5035207;28;20057;-84
2024/02/17 06:29:03;;;;;;;16.17;7.15;;;;;;;9.29;100.00;101864.16;5029798;28;20053;-82
2024/02/17 06:31:30;;;;;;;12.02;6.18;;;;;;;9.29;100.00;101867.66;5050853;28;20045;-84
2024/02/17 06:33:56;;;;;;;13.18;6.60;;;;;;;9.25;100.00;101869.31;5049427;28;20514;-85
2024/02/17 06:36:23;;;;;;;11.68;5.95;;;;;;;9.21;100.00;101872.75;5044970;28;20044;-83
2024/02/17 06:38:50;;;;;;;9.35;5.28;;;;;;;9.22;100.00;101878.88;5035084;28;20044;-85
2024/02/17 06:41:20;;;;;;;8.43;5.68;;;;;;;9.25;100.00;101889.34;5050539;28;20534;-84
2024/02/17 06:43:50;;;;;;;6.28;4.38;;;;;;;9.26;100.00;101886.78;5059967;28;20083;-83
2024/02/17 06:46:20;;;;;;;8.30;4.63;;;;;;;9.18;100.00;101887.53;5033392;28;20051;-83
2024/02/17 06:48:49;;;;;;;6.82;3.75;;;;;;;9.19;100.00;101887.53;5046877;28;20057;-84
2024/02/17 06:51:17;;;;;;;5.72;2.97;;;;;;;9.22;100.00;101903.25;5030895;28;20049;-84
2024/02/17 06:53:44;;;;;;;4.40;2.80;;;;;;;9.25;100.00;101898.06;5047400;28;20049;-85
2024/02/17 06:56:11;;;;;;;4.90;2.80;;;;;;;9.27;100.00;101906.81;5032355;28;20132;-85
2024/02/17 06:58:38;;;;;;;5.85;2.97;;;;;;;9.26;100.00;101907.66;5034240;28;20080;-84
2024/02/17 07:01:05;;;;;;;4.45;2.72;;;;;;;9.24;100.00;101917.25;5052776;28;20390;-85
2024/02/17 07:03:31;;;;;;;6.05;3.05;;;;;;;9.27;100.00;101911.19;5025830;28;20045;-82
2024/02/17 07:05:58;;;;;;;4.60;3.30;;;;;;;9.27;100.00;101911.19;5028041;28;20044;-83
2024/02/17 07:08:24;;;;;;;4.85;2.97;;;;;;;9.24;100.00;101921.56;5045047;28;20056;-84
2024/02/17 07:10:51;;;;;;;12.75;3.05;;;;;;;9.26;100.00;101927.72;5028705;28;20435;-84
2024/02/17 07:13:17;;;;;;;6.00;2.63;;;;;;;9.24;100.00;101937.25;5028902;28;20055;-82
2024/02/17 07:15:45;;;;;;;4.50;2.92;;;;;;;9.25;100.00;101932.03;5048538;28;20053;-84
2024/02/17 07:18:14;;;;;;;2.63;2.42;;;;;;;9.31;100.00;101948.66;5045108;28;20048;-84
2024/02/17 07:20:41;;;;;;;5.28;2.42;;;;;;;9.29;100.00;101943.44;5014371;28;20045;-83
2024/02/17 07:23:08;;;;;;;4.72;3.10;;;;;;;9.28;100.00;101946.88;5049134;28;20116;-85
2024/02/17 07:25:35;;;;;;;7.07;2.80;;;;;;;9.27;100.00;101953.84;5063907;28;20043;-83
2024/02/17 07:28:02;;;;;;;6.78;3.22;;;;;;;9.32;100.00;101945.22;5030279;28;20421;-82
2024/02/17 07:30:31;;;;;;;6.28;3.47;;;;;;;9.35;100.00;101950.50;5043754;28;20447;-83
2024/02/17 07:32:57;;;;;;;3.20;2.90;;;;;;;9.35;100.00;101956.59;5047769;28;20069;-84
2024/02/17 07:35:24;;;;;;;7.15;3.95;;;;;;;9.40;100.00;101961.94;5014832;28;20068;-84
2024/02/17 07:37:51;;;;;;;7.65;2.80;;;;;;;9.38;100.00;101967.09;5031709;28;20071;-84
2024/02/17 07:40:18;;;;;;;4.30;3.13;;;;;;;9.44;100.00;101968.97;5033778;28;20056;-84
2024/02/17 07:42:48;;;;;;;6.70;3.33;;;;;;;9.49;100.00;101969.91;5049125;28;20513;-82
2024/02/17 07:45:15;;;;;;;7.20;3.25;;;;;;;9.55;100.00;101980.44;5040015;28;20827;-83
2024/02/17 07:47:42;;;;;;;10.93;3.42;;;;;;;9.58;100.00;101983.13;5031764;28;20042;-83
2024/02/17 07:50:10;;;;;;;7.43;3.08;;;;;;;9.57;100.00;101976.13;5050369;28;20128;-84
2024/02/17 07:52:37;;;;;;;7.80;3.08;;;;;;;9.65;100.00;101986.72;5031490;28;20045;-84
2024/02/17 07:55:03;;;;;;;9.05;2.80;;;;;;;9.74;100.00;101991.25;5030457;28;20048;-83
2024/02/17 07:57:30;;;;;;;7.10;2.50;;;;;;;9.77;100.00;101988.66;5046683;28;20048;-82
2024/02/17 07:59:57;;;;;;;4.93;2.58;;;;;;;9.74;100.00;101994.72;5050450;28;20436;-83
2024/02/17 08:02:24;;;;;;;6.78;2.88;;;;;;;9.80;100.00;102000.91;5028060;28;20076;-85
2024/02/17 08:04:52;;;;;;;3.72;2.60;;;;;;;9.92;100.00;102012.44;5031301;28;20065;-82
2024/02/17 08:07:22;;;;;;;5.05;2.38;;;;;;;9.97;100.00;102004.66;5023815;28;20049;-82
2024/02/17 08:09:49;;;;;;;3.30;2.00;;;;;;;10.00;100.00;102024.75;5045500;28;20041;-83
2024/02/17 08:12:16;;;;;;;5.95;2.67;;;;;;;10.06;100.00;102024.84;5027115;28;20057;-83
2024/02/17 08:14:42;;;;;;;4.82;2.78;;;;;;;10.08;100.00;102033.63;5030927;28;20041;-81
2024/02/17 08:17:09;;;;;;;4.50;2.92;;;;;;;10.03;100.00;102025.69;5012162;28;20049;-84
2024/02/17 08:19:38;;;;;;;6.55;2.90;;;;;;;9.91;100.00;102028.97;5030971;28;20507;-84
2024/02/17 08:22:05;;;;;;;4.72;2.42;;;;;;;9.97;100.00;102040.41;5028343;28;20135;-82
2024/02/17 08:24:32;;;;;;;4.53;2.67;;;;;;;9.99;100.00;102046.56;5028647;28;20056;-82
2024/02/17 08:26:58;;;;;;;5.30;2.80;;;;;;;10.05;100.00;102046.63;5030499;28;20056;-82
2024/02/17 08:29:27;;;;;;;3.65;3.35;;;;;;;10.14;100.00;102052.00;5029485;28;20501;-83
2024/02/17 08:31:54;;;;;;;4.03;2.20;;;;;;;10.25;100.00;102046.94;5051042;28;20048;-83
2024/02/17 08:34:24;;;;;;;2.97;2.15;;;;;;;10.24;100.00;102050.41;5032930;28;20117;-82
2024/02/17 08:36:51;;;;;;;6.38;2.78;;;;;;;10.20;100.00;102056.47;5034664;28;20049;-82
2024/02/17 08:39:18;;;;;;;5.68;2.65;;;;;;;10.23;100.00;102062.63;5049960;28;20041;-82
2024/02/17 08:41:46;;;;;;;4.88;3.05;;;;;;;10.25;100.00;102073.13;5018851;28;20049;-83
2024/02/17 08:44:13;;;;;;;6.45;3.80;;;;;;;10.19;100.00;102071.25;5025979;28;20045;-82
2024/02/17 08:46:40;;;;;;;3.90;2.90;;;;;;;10.23;100.00;102085.28;5030830;28;20052;-84
2024/02/17 08:49:07;;;;;;;8.02;3.28;;;;;;;10.18;100.00;102080.00;5024334;28;20139;-83
2024/02/17 08:51:33;;;;;;;3.30;2.60;;;;;;;10.22;100.00;102084.41;5047217;28;20041;-84
2024/02/17 08:54:00;;;;;;;4.40;2.88;;;;;;;10.24;100.00;102087.91;5049338;28;20056;-82
2024/02/17 08:56:28;;;;;;;6.20;3.40;;;;;;;10.25;100.00;102088.81;5048135;28;20037;-82
2024/02/17 08:58:55;;;;;;;4.45;3.35;;;;;;;10.36;100.00;102092.50;5031922;28;20103;-84
2024/02/17 09:01:24;;;;;;;5.78;3.47;;;;;;;10.34;100.00;102083.72;5033510;28;20046;-83
2024/02/17 09:03:53;;;;;;;5.05;4.05;;;;;;;10.29;100.00;102103.72;5042344;28;20053;-83
2024/02/17 09:06:22;;;;;;;8.38;3.58;;;;;;;10.28;100.00;102101.94;5031482;28;20067;-84
2024/02/17 09:08:49;;;;;;;5.88;4.03;;;;;;;10.16;100.00;102112.22;5049374;28;20061;-83
2024/02/17 09:11:15;;;;;;;6.15;4.05;;;;;;;10.09;100.00;102112.13;5048260;28;20692;-82
2024/02/17 09:13:42;;;;;;;7.55;4.38;;;;;;;10.06;100.00;102127.78;5029644;28;20411;-82
2024/02/17 09:16:11;;;;;;;6.40;3.83;;;;;;;9.98;100.00;102124.13;5045660;28;20041;-81
2024/02/17 09:18:37;;;;;;;5.43;4.47;;;;;;;9.81;100.00;102117.75;5017551;28;20242;-83
2024/02/17 09:21:07;;;;;;;6.45;3.40;;;;;;;9.86;100.00;102127.41;5043491;28;20061;-84
2024/02/17 09:23:33;;;;;;;5.82;3.20;;;;;;;9.91;100.00;102131.00;5047158;28;20103;-84
2024/02/17 09:26:00;;;;;;;4.25;3.55;;;;;;;9.82;100.00;102125.59;5029753;28;20040;-82
2024/02/17 09:28:29;;;;;;;5.13;3.85;;;;;;;9.85;100.00;102140.47;5021314;28;20059;-81
2024/02/17 09:30:56;;;;;;;9.20;4.13;;;;;;;9.96;100.00;102145.88;5022321;28;20045;-82
2024/02/17 09:33:28;;;;;;;7.68;4.35;;;;;;;10.09;100.00;102145.28;5015451;28;20064;-83
2024/02/17 09:35:56;;;;;;;5.68;4.38;;;;;;;10.05;100.00;102160.03;5030986;28;20050;-84
2024/02/17 09:38:27;;;;;;;9.65;4.63;;;;;;;10.14;100.00;102158.41;5006392;28;20045;-83
2024/02/17 09:40:54;;;;;;;6.57;3.95;;;;;;;10.32;100.00;102165.69;5035778;28;20049;-84
2024/02/17 09:43:21;;;;;;;6.97;3.42;;;;;;;10.49;100.00;102164.25;5046395;28;20049;-84
2024/02/17 09:45:47;;;;;;;18.73;5.93;;;;;;;10.56;100.00;102162.63;5038718;28;20495;-83
2024/02/17 09:48:17;;;;;;;11.95;4.28;;;;;;;10.76;100.00;102166.41;5043036;28;20068;-82
2024/02/17 09:50:49;;;;;;;4.38;2.70;;;;;;;10.91;100.00;102173.63;5039666;28;20130;-84
2024/02/17 09:53:17;;;;;;;2.15;1.73;;;;;;;11.22;97.78;102165.28;5033371;28;20048;-83
2024/02/17 09:55:46;;;;;;;3.50;1.95;;;;;;;11.31;95.60;102169.75;5044904;28;20488;-86
2024/02/17 09:58:13;;;;;;;1.65;1.55;;;;;;;11.41;92.70;102179.50;5030707;28;20566;-82
2024/02/17 10:00:40;;;;;;;2.88;1.80;;;;;;;11.49;90.26;102175.22;5041642;28;20150;-83
2024/02/17 10:03:07;;;;;;;1.83;1.00;;;;;;;11.46;88.63;102183.06;5046597;28;20064;-83
2024/02/17 10:05:34;;;;;;;2.17;1.20;;;;;;;11.32;86.59;102192.50;5026743;28;20048;-83
2024/02/17 10:08:05;;;;;;;1.27;1.05;;;;;;;11.43;86.49;102190.88;5047220;28;20041;-83
2024/02/17 10:10:31;;;;;;;4.43;1.10;;;;;;;11.16;82.97;102191.41;5030583;28;20045;-83
2024/02/17 10:12:59;;;;;;;1.58;0.70;;;;;;;10.98;82.76;102197.28;5045814;28;20049;-82
2024/02/17 10:15:26;;;;;;;2.25;0.80;;;;;;;10.79;82.57;102201.38;5031231;28;20491;-84
2024/02/17 10:17:55;;;;;;;1.00;1.00;;;;;;;10.97;82.31;102203.38;5024486;28;20073;-83
2024/02/17 10:20:22;;;;;;;3.78;0.85;;;;;;;11.16;80.25;102208.03;5043082;28;20045;-83
2024/02/17 10:22:48;;;;;;;2.05;1.10;;;;;;;11.09;81.29;102209.69;5021742;28;20049;-82
2024/02/17 10:25:16;;;;;;;0.93;0.90;;;;;;;10.96;81.99;102218.22;5025542;28;20718;-82
2024/02/17 10:27:45;;;;;;;2.85;1.58;;;;;;;10.90;82.89;102224.25;5027349;28;20061;-83
2024/02/17 10:30:13;;;;;;;1.05;0.70;;;;;;;10.88;83.67;102232.94;5028244;28;20065;-82
2024/02/17 10:32:41;;;;;;;0.80;0.80;;;;;;;10.89;84.26;102234.72;5034782;28;20041;-84
2024/02/17 10:35:09;;;;;;;1.42;1.33;;;;;;;11.01;84.15;102227.03;5038336;28;20476;-82
2024/02/17 10:37:39;;;;;;;5.28;1.23;;;;;;;11.11;83.92;102241.16;5026444;28;20045;-84
2024/02/17 10:40:14;;;;;;;2.40;1.40;;;;;;;11.16;83.75;102233.34;5022684;28;20041;-82
2024/02/17 10:42:40;;;;;;;3.75;1.20;;;;;;;11.20;82.50;102248.28;5025771;28;20049;-84
2024/02/17 10:45:07;;;;;;;4.32;1.08;;;;;;;11.12;83.03;102250.78;5043393;28;20140;-83
2024/02/17 10:47:37;;;;;;;1.35;1.20;;;;;;;11.17;83.19;102254.34;5044147;28;20219;-83
2024/02/17 10:50:35;;;;;;;1.55;1.10;;;;;;;10.95;83.59;102253.16;5049445;28;20045;-81
2024/02/17 10:53:17;;;;;;;2.60;1.67;;;;;;;10.90;84.33;102258.31;5039922;28;20123;-83
2024/02/17 10:55:45;;;;;;;2.22;1.33;;;;;;;10.91;85.06;102265.31;5049227;28;20051;-83
2024/02/17 10:58:18;;;;;;;2.33;1.50;;;;;;;10.96;84.98;102259.28;5045967;28;20041;-82
2024/02/17 11:00:48;;;;;;;3.77;1.50;;;;;;;11.06;85.42;102256.78;5046445;28;20052;-83
2024/02/17 11:03:29;;;;;;;1.23;1.13;;;;;;;11.18;84.96;102273.56;5032092;28;20045;-83
2024/02/17 11:06:00;;;;;;;1.73;1.63;;;;;;;11.20;85.24;102277.13;5044822;28;20053;-83
2024/02/17 11:08:31;;;;;;;4.45;2.10;;;;;;;11.17;85.90;102274.44;5048249;28;20044;-84
2024/02/17 11:11:28;;;;;;;2.70;1.70;;;;;;;11.37;85.29;102280.84;5033196;28;20045;-85
2024/02/17 11:13:57;;;;;;;3.22;1.77;;;;;;;11.37;85.56;102280.84;5047482;28;20056;-83
2024/02/17 11:16:26;;;;;;;6.95;3.38;;;;;;;11.40;85.37;102278.25;5051334;28;20071;-83
2024/02/17 11:18:56;;;;;;;1.90;1.70;;;;;;;11.55;85.28;102280.22;5029762;28;20561;-84
2024/02/17 11:21:32;;;;;;;2.13;1.92;;;;;;;11.73;83.22;102278.66;5034277;28;20072;-84